createdAt,value
2023-04-16T00:00:09.552Z,541.76
2023-04-16T00:00:20.533Z,541.80
2023-04-16T00:00:31.633Z,541.89
2023-04-16T00:00:43.565Z,541.81
2023-04-16T00:00:54.559Z,541.79
2023-04-16T00:01:05.538Z,541.79
2023-04-16T00:01:16.609Z,541.84
2023-04-16T00:01:28.552Z,541.83
2023-04-16T00:01:39.540Z,541.84
2023-04-16T00:01:50.568Z,541.83
2023-04-16T00:02:01.718Z,541.89
2023-04-16T00:02:13.796Z,541.86
2023-04-16T00:02:25.654Z,541.89
2023-04-16T00:02:37.748Z,541.88
2023-04-16T00:02:48.702Z,541.80
2023-04-16T00:02:59.797Z,541.88
2023-04-16T00:03:10.675Z,541.87
2023-04-16T00:03:21.795Z,541.89
2023-04-16T00:03:33.749Z,541.89
2023-04-16T00:03:44.776Z,541.85
2023-04-16T00:03:56.745Z,541.87
2023-04-16T00:04:08.754Z,541.85
2023-04-16T00:04:20.677Z,541.85
2023-04-16T00:04:32.639Z,541.78
2023-04-16T00:04:44.667Z,541.79
2023-04-16T00:04:56.599Z,541.87
2023-04-16T00:05:08.631Z,541.80
2023-04-16T00:05:20.561Z,541.75
2023-04-16T00:05:31.547Z,541.75
2023-04-16T00:05:42.655Z,541.83
2023-04-16T00:05:54.620Z,541.77
2023-04-16T00:06:06.555Z,541.75
2023-04-16T00:06:17.574Z,541.72
2023-04-16T00:06:28.574Z,541.77
2023-04-16T00:06:39.573Z,541.82
2023-04-16T00:06:50.547Z,541.88
2023-04-16T00:07:01.524Z,541.80
2023-04-16T00:07:12.608Z,541.69
2023-04-16T00:07:24.566Z,541.60
2023-04-16T00:07:35.538Z,541.66
2023-04-16T00:07:46.622Z,541.59
2023-04-16T00:07:58.562Z,541.50
2023-04-16T00:08:09.586Z,541.52
2023-04-16T00:08:20.570Z,541.59
2023-04-16T00:08:31.575Z,541.64
2023-04-16T00:08:42.609Z,541.67
2023-04-16T00:08:53.573Z,541.65
2023-04-16T00:09:05.611Z,541.66
2023-04-16T00:09:17.554Z,541.62
2023-04-16T00:09:28.535Z,541.60
2023-04-16T00:09:39.539Z,541.57
2023-04-16T00:09:50.617Z,541.48
2023-04-16T00:10:02.558Z,541.52
2023-04-16T00:10:13.560Z,541.63
2023-04-16T00:10:24.546Z,541.59
2023-04-16T00:10:35.577Z,541.57
2023-04-16T00:10:46.557Z,541.61
2023-04-16T00:10:57.561Z,541.62
2023-04-16T00:11:08.562Z,541.65
2023-04-16T00:11:19.530Z,541.65
2023-04-16T00:11:30.549Z,541.54
2023-04-16T00:11:41.520Z,541.59
2023-04-16T00:11:52.667Z,541.60
2023-04-16T00:12:04.631Z,541.55
2023-04-16T00:12:16.612Z,541.64
2023-04-16T00:12:27.585Z,541.64
2023-04-16T00:12:38.561Z,541.61
2023-04-16T00:12:49.547Z,541.59
2023-04-16T00:13:00.526Z,541.64
2023-04-16T00:13:11.606Z,541.65
2023-04-16T00:13:22.650Z,541.68
2023-04-16T00:13:34.566Z,541.72
2023-04-16T00:13:45.581Z,541.68
2023-04-16T00:13:56.574Z,541.60
2023-04-16T00:14:07.557Z,541.56
2023-04-16T00:14:18.543Z,541.49
2023-04-16T00:14:29.530Z,541.41
2023-04-16T00:14:40.610Z,541.35
2023-04-16T00:14:52.560Z,541.70
2023-04-16T00:15:03.545Z,541.56
2023-04-16T00:15:14.544Z,541.58
2023-04-16T00:15:25.646Z,541.68
2023-04-16T00:15:37.576Z,541.60
2023-04-16T00:15:48.582Z,541.62
2023-04-16T00:15:59.558Z,541.56
2023-04-16T00:16:10.532Z,541.53
2023-04-16T00:16:21.648Z,541.45
2023-04-16T00:16:33.583Z,541.41
2023-04-16T00:16:44.602Z,541.37
2023-04-16T00:16:55.627Z,541.36
2023-04-16T00:17:06.633Z,541.33
2023-04-16T00:17:17.546Z,541.31
2023-04-16T00:17:28.662Z,541.30
2023-04-16T00:17:40.690Z,541.24
2023-04-16T00:17:52.735Z,541.36
2023-04-16T00:18:03.622Z,541.40
2023-04-16T00:18:15.631Z,541.50
2023-04-16T00:18:26.579Z,541.37
2023-04-16T00:18:37.559Z,541.35
2023-04-16T00:18:48.549Z,541.30
2023-04-16T00:18:59.533Z,541.25
2023-04-16T00:19:10.780Z,541.28
2023-04-16T00:19:22.609Z,541.33
2023-04-16T00:19:34.563Z,541.32
2023-04-16T00:19:45.534Z,541.30
2023-04-16T00:19:56.615Z,541.29
2023-04-16T00:20:08.547Z,541.27
2023-04-16T00:20:19.624Z,541.24
2023-04-16T00:20:31.567Z,541.21
2023-04-16T00:20:42.594Z,541.31
2023-04-16T00:20:53.576Z,541.35
2023-04-16T00:21:04.575Z,541.36
2023-04-16T00:21:15.582Z,541.40
2023-04-16T00:21:26.574Z,541.33
2023-04-16T00:21:37.559Z,541.26
2023-04-16T00:21:48.549Z,541.27
2023-04-16T00:21:59.526Z,541.34
2023-04-16T00:22:10.591Z,541.27
2023-04-16T00:22:21.572Z,541.24
2023-04-16T00:22:32.556Z,541.24
2023-04-16T00:22:43.555Z,541.14
2023-04-16T00:22:54.532Z,541.03
2023-04-16T00:23:05.613Z,541.06
2023-04-16T00:23:17.559Z,541.20
2023-04-16T00:23:28.546Z,541.29
2023-04-16T00:23:39.533Z,541.26
2023-04-16T00:23:50.597Z,541.27
2023-04-16T00:24:01.594Z,541.25
2023-04-16T00:24:13.572Z,541.24
2023-04-16T00:24:24.546Z,541.23
2023-04-16T00:24:35.624Z,541.22
2023-04-16T00:24:47.562Z,541.20
2023-04-16T00:24:58.578Z,541.23
2023-04-16T00:25:09.559Z,541.25
2023-04-16T00:25:20.531Z,541.25
2023-04-16T00:25:31.609Z,541.27
2023-04-16T00:25:42.621Z,541.20
2023-04-16T00:25:54.570Z,541.31
2023-04-16T00:26:05.542Z,541.33
2023-04-16T00:26:16.614Z,541.25
2023-04-16T00:26:28.570Z,541.22
2023-04-16T00:26:39.563Z,541.44
2023-04-16T00:26:50.552Z,541.37
2023-04-16T00:27:01.559Z,541.39
2023-04-16T00:27:12.589Z,541.43
2023-04-16T00:27:23.524Z,541.36
2023-04-16T00:27:34.609Z,541.34
2023-04-16T00:27:46.556Z,541.37
2023-04-16T00:27:57.533Z,541.52
2023-04-16T00:28:10.037Z,541.47
2023-04-16T00:28:20.614Z,541.47
2023-04-16T00:28:32.551Z,541.43
2023-04-16T00:28:43.544Z,541.41
2023-04-16T00:28:54.524Z,541.36
2023-04-16T00:29:05.583Z,541.36
2023-04-16T00:29:16.565Z,541.38
2023-04-16T00:29:27.530Z,541.35
2023-04-16T00:29:38.537Z,541.32
2023-04-16T00:29:49.525Z,541.32
2023-04-16T00:30:00.631Z,541.38
2023-04-16T00:30:12.617Z,541.37
2023-04-16T00:30:24.574Z,541.31
2023-04-16T00:30:35.577Z,541.30
2023-04-16T00:30:46.640Z,541.29
2023-04-16T00:30:57.585Z,541.30
2023-04-16T00:31:08.598Z,541.22
2023-04-16T00:31:19.607Z,541.16
2023-04-16T00:31:31.629Z,541.20
2023-04-16T00:31:42.546Z,541.18
2023-04-16T00:31:53.545Z,541.12
2023-04-16T00:32:04.619Z,541.14
2023-04-16T00:32:16.555Z,541.13
2023-04-16T00:32:27.581Z,541.09
2023-04-16T00:32:38.628Z,541.18
2023-04-16T00:32:49.570Z,541.15
2023-04-16T00:33:00.594Z,541.14
2023-04-16T00:33:12.586Z,541.10
2023-04-16T00:33:24.552Z,541.11
2023-04-16T00:33:35.625Z,541.12
2023-04-16T00:33:47.588Z,541.07
2023-04-16T00:33:58.566Z,541.04
2023-04-16T00:34:09.569Z,541.15
2023-04-16T00:34:20.548Z,541.09
2023-04-16T00:34:31.546Z,541.08
2023-04-16T00:34:42.580Z,541.10
2023-04-16T00:34:53.579Z,541.03
2023-04-16T00:35:04.564Z,541.05
2023-04-16T00:35:15.556Z,541.00
2023-04-16T00:35:26.541Z,540.97
2023-04-16T00:35:37.533Z,540.93
2023-04-16T00:35:48.626Z,540.98
2023-04-16T00:36:00.572Z,540.88
2023-04-16T00:36:11.560Z,540.93
2023-04-16T00:36:22.543Z,540.86
2023-04-16T00:36:33.619Z,540.77
2023-04-16T00:36:45.557Z,540.84
2023-04-16T00:36:56.537Z,540.78
2023-04-16T00:37:07.604Z,540.76
2023-04-16T00:37:18.586Z,540.73
2023-04-16T00:37:29.558Z,540.76
2023-04-16T00:37:40.557Z,540.80
2023-04-16T00:37:51.547Z,540.74
2023-04-16T00:38:02.587Z,540.73
2023-04-16T00:38:13.578Z,540.80
2023-04-16T00:38:24.575Z,540.78
2023-04-16T00:38:35.556Z,540.80
2023-04-16T00:38:46.540Z,540.73
2023-04-16T00:38:57.535Z,540.72
2023-04-16T00:39:08.942Z,540.71
2023-04-16T00:39:19.525Z,540.67
2023-04-16T00:39:30.613Z,540.68
2023-04-16T00:39:42.550Z,540.65
2023-04-16T00:39:53.562Z,540.66
2023-04-16T00:40:04.549Z,540.66
2023-04-16T00:40:15.532Z,540.68
2023-04-16T00:40:26.528Z,540.62
2023-04-16T00:40:37.609Z,540.60
2023-04-16T00:40:49.549Z,540.59
2023-04-16T00:41:00.555Z,540.61
2023-04-16T00:41:11.525Z,540.70
2023-04-16T00:41:22.606Z,540.74
2023-04-16T00:41:33.579Z,540.68
2023-04-16T00:41:44.556Z,540.60
2023-04-16T00:41:55.514Z,540.59
2023-04-16T00:42:06.713Z,540.54
2023-04-16T00:42:18.562Z,540.67
2023-04-16T00:42:29.536Z,540.66
2023-04-16T00:42:40.621Z,540.68
2023-04-16T00:42:52.567Z,540.65
2023-04-16T00:43:03.549Z,540.62
2023-04-16T00:43:14.510Z,540.70
2023-04-16T00:43:25.602Z,540.61
2023-04-16T00:43:37.582Z,540.59
2023-04-16T00:43:48.547Z,540.58
2023-04-16T00:43:59.523Z,540.56
2023-04-16T00:44:10.604Z,540.54
2023-04-16T00:44:21.576Z,540.54
2023-04-16T00:44:32.547Z,540.61
2023-04-16T00:44:43.543Z,540.63
2023-04-16T00:44:54.534Z,540.62
2023-04-16T00:45:05.614Z,540.61
2023-04-16T00:45:17.569Z,540.57
2023-04-16T00:45:28.552Z,540.56
2023-04-16T00:45:39.543Z,540.58
2023-04-16T00:45:50.680Z,540.59
2023-04-16T00:46:02.668Z,540.57
2023-04-16T00:46:13.632Z,540.65
2023-04-16T00:46:24.600Z,540.61
2023-04-16T00:46:35.647Z,540.63
2023-04-16T00:46:47.675Z,540.59
2023-04-16T00:46:59.615Z,540.53
2023-04-16T00:47:11.554Z,540.53
2023-04-16T00:47:22.572Z,540.53
2023-04-16T00:47:33.610Z,540.52
2023-04-16T00:47:45.611Z,540.56
2023-04-16T00:47:59.291Z,540.67
2023-04-16T00:48:09.558Z,540.58
2023-04-16T00:48:20.546Z,540.63
2023-04-16T00:48:31.654Z,540.65
2023-04-16T00:48:43.607Z,540.68
2023-04-16T00:48:55.560Z,540.58
2023-04-16T00:49:06.699Z,540.63
2023-04-16T00:49:17.558Z,540.58
2023-04-16T00:49:28.554Z,540.61
2023-04-16T00:49:39.531Z,540.52
2023-04-16T00:49:50.610Z,540.51
2023-04-16T00:50:01.596Z,540.58
2023-04-16T00:50:12.556Z,540.59
2023-04-16T00:50:23.538Z,540.59
2023-04-16T00:50:34.530Z,540.56
2023-04-16T00:50:45.592Z,540.58
2023-04-16T00:50:56.588Z,540.53
2023-04-16T00:51:07.561Z,540.40
2023-04-16T00:51:18.550Z,540.44
2023-04-16T00:51:29.536Z,540.49
2023-04-16T00:51:40.600Z,540.46
2023-04-16T00:51:51.579Z,540.42
2023-04-16T00:52:02.596Z,540.42
2023-04-16T00:52:13.547Z,540.37
2023-04-16T00:52:24.527Z,540.46
2023-04-16T00:52:35.607Z,540.38
2023-04-16T00:52:46.582Z,540.39
2023-04-16T00:52:57.556Z,540.37
2023-04-16T00:53:08.544Z,540.34
2023-04-16T00:53:19.527Z,540.32
2023-04-16T00:53:30.603Z,540.35
2023-04-16T00:53:42.533Z,540.32
2023-04-16T00:53:53.617Z,540.35
2023-04-16T00:54:05.562Z,540.36
2023-04-16T00:54:16.551Z,540.38
2023-04-16T00:54:27.528Z,540.41
2023-04-16T00:54:38.607Z,540.33
2023-04-16T00:54:50.560Z,540.32
2023-04-16T00:55:01.592Z,540.30
2023-04-16T00:55:13.552Z,540.24
2023-04-16T00:55:24.531Z,540.24
2023-04-16T00:55:35.620Z,540.20
2023-04-16T00:55:47.580Z,540.25
2023-04-16T00:55:58.568Z,540.30
2023-04-16T00:56:09.560Z,540.28
2023-04-16T00:56:20.679Z,540.27
2023-04-16T00:56:32.546Z,540.32
2023-04-16T00:56:43.534Z,540.33
2023-04-16T00:56:54.617Z,540.31
2023-04-16T00:57:06.566Z,540.28
2023-04-16T00:57:17.557Z,540.29
2023-04-16T00:57:28.571Z,540.32
2023-04-16T00:57:39.552Z,540.31
2023-04-16T00:57:50.528Z,540.33
2023-04-16T00:58:01.517Z,540.30
2023-04-16T00:58:12.627Z,540.20
2023-04-16T00:58:24.599Z,540.21
2023-04-16T00:58:35.602Z,540.22
2023-04-16T00:58:47.556Z,540.26
2023-04-16T00:58:58.530Z,540.25
2023-04-16T00:59:09.762Z,540.28
2023-04-16T00:59:20.620Z,540.31
2023-04-16T00:59:32.553Z,540.32
2023-04-16T00:59:43.548Z,540.39
2023-04-16T00:59:54.527Z,540.37
2023-04-16T01:00:05.548Z,540.38
2023-04-16T01:00:16.532Z,540.41
2023-04-16T01:00:27.522Z,540.41
2023-04-16T01:00:38.606Z,540.44
2023-04-16T01:00:50.560Z,540.45
2023-04-16T01:01:01.572Z,540.49
2023-04-16T01:01:12.562Z,540.41
2023-04-16T01:01:23.659Z,540.49
2023-04-16T01:01:35.554Z,540.52
2023-04-16T01:01:46.633Z,540.55
2023-04-16T01:01:57.648Z,540.55
2023-04-16T01:02:09.662Z,540.53
2023-04-16T01:02:21.598Z,540.50
2023-04-16T01:02:33.681Z,540.47
2023-04-16T01:02:44.631Z,540.52
2023-04-16T01:02:56.736Z,540.55
2023-04-16T01:03:08.652Z,540.54
2023-04-16T01:03:19.761Z,540.57
2023-04-16T01:03:30.702Z,540.57
2023-04-16T01:03:41.659Z,540.57
2023-04-16T01:03:52.844Z,540.58
2023-04-16T01:04:04.653Z,540.61
2023-04-16T01:04:15.787Z,540.65
2023-04-16T01:04:26.652Z,540.63
2023-04-16T01:04:38.580Z,540.63
2023-04-16T01:04:50.603Z,540.61
2023-04-16T01:05:02.559Z,540.56
2023-04-16T01:05:13.547Z,540.55
2023-04-16T01:05:24.618Z,540.54
2023-04-16T01:05:36.578Z,540.56
2023-04-16T01:05:47.573Z,540.52
2023-04-16T01:05:58.553Z,540.47
2023-04-16T01:06:09.547Z,540.44
2023-04-16T01:06:20.527Z,540.42
2023-04-16T01:06:31.616Z,540.41
2023-04-16T01:06:43.559Z,540.36
2023-04-16T01:06:54.544Z,540.38
2023-04-16T01:07:05.524Z,540.34
2023-04-16T01:07:16.594Z,540.36
2023-04-16T01:07:27.579Z,540.35
2023-04-16T01:07:38.546Z,540.30
2023-04-16T01:07:49.542Z,540.27
2023-04-16T01:08:00.535Z,540.26
2023-04-16T01:08:11.632Z,540.23
2023-04-16T01:08:23.558Z,540.22
2023-04-16T01:08:34.567Z,540.22
2023-04-16T01:08:45.562Z,540.21
2023-04-16T01:08:56.552Z,540.19
2023-04-16T01:09:07.866Z,540.11
2023-04-16T01:09:18.543Z,540.08
2023-04-16T01:09:29.623Z,540.03
2023-04-16T01:09:41.564Z,540.00
2023-04-16T01:09:52.528Z,540.00
2023-04-16T01:10:03.626Z,539.99
2023-04-16T01:10:15.575Z,540.00
2023-04-16T01:10:26.575Z,539.92
2023-04-16T01:10:37.575Z,539.93
2023-04-16T01:10:48.579Z,539.95
2023-04-16T01:10:59.560Z,539.91
2023-04-16T01:11:10.539Z,539.82
2023-04-16T01:11:21.538Z,539.79
2023-04-16T01:11:32.610Z,539.78
2023-04-16T01:11:44.578Z,539.79
2023-04-16T01:11:55.571Z,539.78
2023-04-16T01:12:06.561Z,539.69
2023-04-16T01:12:17.553Z,539.70
2023-04-16T01:12:28.558Z,539.67
2023-04-16T01:12:39.618Z,539.71
2023-04-16T01:12:51.564Z,539.56
2023-04-16T01:13:02.549Z,539.64
2023-04-16T01:13:13.562Z,539.65
2023-04-16T01:13:24.546Z,539.68
2023-04-16T01:13:35.614Z,539.65
2023-04-16T01:13:47.567Z,539.71
2023-04-16T01:13:58.547Z,539.68
2023-04-16T01:14:09.611Z,539.60
2023-04-16T01:14:21.549Z,539.57
2023-04-16T01:14:32.551Z,539.56
2023-04-16T01:14:43.530Z,539.58
2023-04-16T01:14:54.610Z,539.65
2023-04-16T01:15:05.586Z,539.63
2023-04-16T01:15:16.552Z,539.58
2023-04-16T01:15:27.558Z,539.62
2023-04-16T01:15:38.557Z,539.62
2023-04-16T01:15:49.605Z,539.64
2023-04-16T01:16:00.627Z,539.70
2023-04-16T01:16:12.627Z,539.62
2023-04-16T01:16:23.595Z,539.60
2023-04-16T01:16:34.546Z,539.53
2023-04-16T01:16:45.619Z,539.47
2023-04-16T01:16:57.549Z,539.45
2023-04-16T01:17:08.551Z,539.49
2023-04-16T01:17:19.625Z,539.44
2023-04-16T01:17:31.575Z,539.45
2023-04-16T01:17:42.650Z,539.43
2023-04-16T01:17:53.625Z,539.47
2023-04-16T01:18:04.576Z,539.48
2023-04-16T01:18:15.559Z,539.43
2023-04-16T01:18:26.530Z,539.41
2023-04-16T01:18:37.660Z,539.36
2023-04-16T01:18:49.638Z,539.41
2023-04-16T01:19:01.606Z,539.41
2023-04-16T01:19:13.580Z,539.36
2023-04-16T01:19:24.573Z,539.31
2023-04-16T01:19:35.552Z,539.31
2023-04-16T01:19:46.514Z,539.31
2023-04-16T01:19:57.606Z,539.33
2023-04-16T01:20:09.557Z,539.35
2023-04-16T01:20:20.555Z,539.31
2023-04-16T01:20:31.540Z,539.26
2023-04-16T01:20:42.524Z,539.26
2023-04-16T01:20:53.627Z,539.26
2023-04-16T01:21:05.565Z,539.28
2023-04-16T01:21:16.563Z,539.25
2023-04-16T01:21:27.586Z,539.23
2023-04-16T01:21:38.613Z,539.27
2023-04-16T01:21:50.567Z,539.32
2023-04-16T01:22:01.540Z,539.24
2023-04-16T01:22:12.628Z,539.33
2023-04-16T01:22:24.613Z,539.34
2023-04-16T01:22:36.557Z,539.27
2023-04-16T01:22:47.537Z,539.31
2023-04-16T01:22:58.623Z,539.33
2023-04-16T01:23:10.556Z,539.27
2023-04-16T01:23:21.548Z,539.33
2023-04-16T01:23:32.539Z,539.28
2023-04-16T01:23:43.626Z,539.26
2023-04-16T01:23:55.587Z,539.23
2023-04-16T01:24:06.569Z,539.21
2023-04-16T01:24:17.544Z,539.22
2023-04-16T01:24:28.620Z,539.16
2023-04-16T01:24:40.562Z,539.14
2023-04-16T01:24:51.531Z,539.13
2023-04-16T01:25:02.539Z,539.13
2023-04-16T01:25:13.619Z,539.11
2023-04-16T01:25:25.577Z,539.08
2023-04-16T01:25:36.555Z,539.08
2023-04-16T01:25:47.558Z,539.01
2023-04-16T01:25:58.542Z,538.95
2023-04-16T01:26:09.623Z,538.91
2023-04-16T01:26:21.564Z,538.94
2023-04-16T01:26:32.539Z,538.93
2023-04-16T01:26:43.618Z,539.02
2023-04-16T01:26:55.566Z,538.96
2023-04-16T01:27:06.547Z,538.87
2023-04-16T01:27:17.616Z,538.83
2023-04-16T01:27:29.537Z,538.83
2023-04-16T01:27:40.541Z,538.79
2023-04-16T01:27:51.528Z,538.79
2023-04-16T01:28:02.642Z,538.75
2023-04-16T01:28:14.581Z,538.79
2023-04-16T01:28:25.571Z,538.76
2023-04-16T01:28:36.589Z,538.74
2023-04-16T01:28:47.589Z,538.73
2023-04-16T01:28:58.568Z,538.71
2023-04-16T01:29:09.674Z,538.73
2023-04-16T01:29:20.587Z,538.71
2023-04-16T01:29:31.570Z,538.73
2023-04-16T01:29:42.545Z,538.67
2023-04-16T01:29:53.606Z,538.71
2023-04-16T01:30:05.564Z,538.75
2023-04-16T01:30:16.520Z,538.75
2023-04-16T01:30:27.605Z,538.78
2023-04-16T01:30:39.551Z,538.78
2023-04-16T01:30:50.537Z,538.75
2023-04-16T01:31:01.723Z,538.63
2023-04-16T01:31:13.705Z,538.62
2023-04-16T01:31:25.619Z,538.53
2023-04-16T01:31:37.637Z,538.47
2023-04-16T01:31:48.612Z,538.51
2023-04-16T01:32:00.606Z,538.50
2023-04-16T01:32:11.586Z,538.42
2023-04-16T01:32:22.584Z,538.39
2023-04-16T01:32:34.564Z,538.40
2023-04-16T01:32:45.555Z,538.35
2023-04-16T01:32:56.583Z,538.40
2023-04-16T01:33:07.577Z,538.42
2023-04-16T01:33:18.561Z,538.36
2023-04-16T01:33:29.549Z,538.36
2023-04-16T01:33:40.528Z,538.33
2023-04-16T01:33:51.528Z,538.35
2023-04-16T01:34:02.605Z,538.34
2023-04-16T01:34:13.582Z,538.45
2023-04-16T01:34:24.568Z,538.43
2023-04-16T01:34:35.557Z,538.47
2023-04-16T01:34:46.565Z,538.45
2023-04-16T01:34:57.550Z,538.39
2023-04-16T01:35:08.529Z,538.32
2023-04-16T01:35:19.600Z,538.33
2023-04-16T01:35:31.560Z,538.26
2023-04-16T01:35:42.542Z,538.30
2023-04-16T01:35:53.531Z,538.33
2023-04-16T01:36:04.613Z,538.33
2023-04-16T01:36:16.557Z,538.28
2023-04-16T01:36:27.552Z,538.21
2023-04-16T01:36:38.535Z,538.30
2023-04-16T01:36:49.618Z,538.32
2023-04-16T01:37:01.560Z,538.32
2023-04-16T01:37:12.545Z,538.31
2023-04-16T01:37:23.547Z,538.28
2023-04-16T01:37:34.625Z,538.27
2023-04-16T01:37:46.552Z,538.27
2023-04-16T01:37:57.533Z,538.29
2023-04-16T01:38:08.628Z,538.30
2023-04-16T01:38:20.583Z,538.32
2023-04-16T01:38:31.565Z,538.28
2023-04-16T01:38:42.552Z,538.22
2023-04-16T01:38:53.525Z,538.16
2023-04-16T01:39:04.621Z,538.25
2023-04-16T01:39:16.662Z,538.20
2023-04-16T01:39:28.605Z,538.19
2023-04-16T01:39:39.588Z,538.17
2023-04-16T01:39:50.565Z,538.15
2023-04-16T01:40:02.585Z,538.18
2023-04-16T01:40:13.570Z,538.13
2023-04-16T01:40:24.552Z,538.09
2023-04-16T01:40:35.535Z,538.08
2023-04-16T01:40:46.615Z,538.08
2023-04-16T01:40:58.561Z,538.07
2023-04-16T01:41:09.540Z,538.03
2023-04-16T01:41:20.553Z,538.02
2023-04-16T01:41:31.533Z,538.08
2023-04-16T01:41:42.609Z,538.14
2023-04-16T01:41:53.578Z,538.18
2023-04-16T01:42:04.572Z,538.13
2023-04-16T01:42:15.553Z,538.14
2023-04-16T01:42:26.538Z,538.18
2023-04-16T01:42:37.570Z,538.24
2023-04-16T01:42:48.547Z,538.23
2023-04-16T01:42:59.537Z,538.27
2023-04-16T01:43:10.616Z,538.22
2023-04-16T01:43:21.584Z,538.12
2023-04-16T01:43:32.562Z,538.04
2023-04-16T01:43:43.547Z,538.15
2023-04-16T01:43:54.619Z,538.19
2023-04-16T01:44:06.578Z,538.26
2023-04-16T01:44:17.560Z,538.29
2023-04-16T01:44:28.555Z,538.23
2023-04-16T01:44:39.536Z,538.30
2023-04-16T01:44:50.608Z,538.40
2023-04-16T01:45:01.589Z,538.36
2023-04-16T01:45:12.556Z,538.32
2023-04-16T01:45:23.545Z,538.21
2023-04-16T01:45:34.638Z,538.26
2023-04-16T01:45:46.589Z,538.42
2023-04-16T01:45:57.557Z,538.49
2023-04-16T01:46:08.550Z,538.51
2023-04-16T01:46:19.567Z,538.39
2023-04-16T01:46:30.563Z,538.35
2023-04-16T01:46:41.565Z,538.46
2023-04-16T01:46:52.596Z,538.48
2023-04-16T01:47:04.677Z,538.48
2023-04-16T01:47:16.595Z,538.43
2023-04-16T01:47:27.633Z,538.45
2023-04-16T01:47:39.651Z,538.42
2023-04-16T01:47:51.623Z,538.43
2023-04-16T01:48:03.570Z,538.30
2023-04-16T01:48:14.567Z,538.32
2023-04-16T01:48:25.552Z,538.38
2023-04-16T01:48:36.540Z,538.40
2023-04-16T01:48:47.631Z,538.39
2023-04-16T01:48:59.575Z,538.36
2023-04-16T01:49:10.716Z,538.39
2023-04-16T01:49:21.536Z,538.44
2023-04-16T01:49:32.615Z,538.48
2023-04-16T01:49:43.568Z,538.44
2023-04-16T01:49:54.568Z,538.39
2023-04-16T01:50:05.549Z,538.39
2023-04-16T01:50:16.565Z,538.32
2023-04-16T01:50:27.535Z,538.31
2023-04-16T01:50:38.616Z,538.34
2023-04-16T01:50:50.563Z,538.43
2023-04-16T01:51:01.535Z,538.51
2023-04-16T01:51:12.614Z,538.51
2023-04-16T01:51:24.557Z,538.49
2023-04-16T01:51:35.527Z,538.45
2023-04-16T01:51:46.607Z,538.44
2023-04-16T01:51:57.590Z,538.41
2023-04-16T01:52:09.383Z,538.42
2023-04-16T01:52:20.571Z,538.40
2023-04-16T01:52:31.580Z,538.40
2023-04-16T01:52:42.552Z,538.43
2023-04-16T01:52:53.557Z,538.45
2023-04-16T01:53:04.545Z,538.45
2023-04-16T01:53:15.649Z,538.45
2023-04-16T01:53:27.608Z,538.44
2023-04-16T01:53:38.580Z,538.48
2023-04-16T01:53:49.561Z,538.46
2023-04-16T01:54:00.527Z,538.39
2023-04-16T01:54:11.600Z,538.39
2023-04-16T01:54:23.545Z,538.46
2023-04-16T01:54:34.628Z,538.60
2023-04-16T01:54:46.552Z,538.45
2023-04-16T01:54:57.540Z,538.72
2023-04-16T01:55:08.620Z,538.67
2023-04-16T01:55:20.559Z,538.60
2023-04-16T01:55:31.581Z,538.58
2023-04-16T01:55:42.576Z,538.56
2023-04-16T01:55:53.539Z,538.59
2023-04-16T01:56:04.620Z,538.59
2023-04-16T01:56:16.579Z,538.61
2023-04-16T01:56:27.562Z,538.54
2023-04-16T01:56:38.533Z,538.47
2023-04-16T01:56:49.573Z,538.54
2023-04-16T01:57:00.551Z,538.55
2023-04-16T01:57:11.626Z,538.53
2023-04-16T01:57:23.564Z,538.52
2023-04-16T01:57:34.552Z,538.52
2023-04-16T01:57:45.630Z,538.59
2023-04-16T01:57:57.556Z,538.54
2023-04-16T01:58:08.542Z,538.53
2023-04-16T01:58:19.617Z,538.48
2023-04-16T01:58:31.549Z,538.54
2023-04-16T01:58:42.546Z,538.57
2023-04-16T01:58:53.542Z,538.58
2023-04-16T01:59:04.615Z,538.46
2023-04-16T01:59:16.562Z,538.47
2023-04-16T01:59:27.561Z,538.47
2023-04-16T01:59:38.541Z,538.38
2023-04-16T01:59:49.616Z,538.39
2023-04-16T02:00:00.601Z,538.48
2023-04-16T02:00:11.589Z,538.48
2023-04-16T02:00:22.566Z,538.46
2023-04-16T02:00:33.579Z,538.41
2023-04-16T02:00:45.629Z,538.35
2023-04-16T02:00:56.573Z,538.41
2023-04-16T02:01:07.664Z,538.36
2023-04-16T02:01:18.670Z,538.42
2023-04-16T02:01:30.632Z,538.57
2023-04-16T02:01:42.580Z,538.51
2023-04-16T02:01:53.673Z,538.45
2023-04-16T02:02:04.681Z,538.41
2023-04-16T02:02:16.625Z,538.36
2023-04-16T02:02:27.620Z,538.39
2023-04-16T02:02:38.684Z,538.38
2023-04-16T02:02:50.678Z,538.43
2023-04-16T02:03:02.919Z,538.41
2023-04-16T02:03:13.799Z,538.46
2023-04-16T02:03:25.587Z,538.52
2023-04-16T02:03:36.762Z,538.49
2023-04-16T02:03:47.740Z,538.43
2023-04-16T02:03:58.662Z,538.31
2023-04-16T02:04:10.690Z,538.28
2023-04-16T02:04:22.599Z,538.36
2023-04-16T02:04:33.579Z,538.42
2023-04-16T02:04:44.546Z,538.41
2023-04-16T02:04:55.519Z,538.46
2023-04-16T02:05:06.617Z,538.43
2023-04-16T02:05:18.559Z,538.37
2023-04-16T02:05:29.549Z,538.20
2023-04-16T02:05:40.532Z,538.29
2023-04-16T02:05:51.618Z,538.35
2023-04-16T02:06:03.569Z,538.35
2023-04-16T02:06:14.543Z,538.33
2023-04-16T02:06:25.618Z,538.26
2023-04-16T02:06:36.589Z,538.22
2023-04-16T02:06:47.566Z,538.17
2023-04-16T02:06:58.537Z,538.16
2023-04-16T02:07:09.625Z,538.13
2023-04-16T02:07:21.580Z,538.24
2023-04-16T02:07:32.585Z,538.15
2023-04-16T02:07:43.574Z,538.15
2023-04-16T02:07:54.582Z,538.20
2023-04-16T02:08:05.558Z,538.21
2023-04-16T02:08:16.538Z,538.28
2023-04-16T02:08:27.628Z,538.30
2023-04-16T02:08:39.572Z,538.25
2023-04-16T02:08:50.541Z,538.19
2023-04-16T02:09:01.601Z,538.13
2023-04-16T02:09:13.558Z,538.12
2023-04-16T02:09:24.536Z,538.04
2023-04-16T02:09:35.636Z,538.09
2023-04-16T02:09:47.585Z,538.06
2023-04-16T02:09:58.574Z,538.03
2023-04-16T02:10:09.546Z,538.03
2023-04-16T02:10:20.627Z,538.07
2023-04-16T02:10:32.588Z,538.04
2023-04-16T02:10:43.571Z,538.00
2023-04-16T02:10:54.558Z,538.02
2023-04-16T02:11:05.541Z,538.00
2023-04-16T02:11:16.624Z,537.98
2023-04-16T02:11:28.558Z,538.02
2023-04-16T02:11:39.527Z,538.05
2023-04-16T02:11:50.604Z,538.01
2023-04-16T02:12:02.560Z,538.00
2023-04-16T02:12:13.556Z,537.90
2023-04-16T02:12:24.527Z,537.95
2023-04-16T02:12:35.588Z,538.00
2023-04-16T02:12:46.585Z,538.04
2023-04-16T02:12:57.566Z,537.99
2023-04-16T02:13:08.537Z,538.02
2023-04-16T02:13:19.614Z,538.02
2023-04-16T02:13:30.582Z,538.01
2023-04-16T02:13:41.562Z,537.95
2023-04-16T02:13:52.538Z,537.97
2023-04-16T02:14:03.543Z,537.95
2023-04-16T02:14:14.629Z,537.96
2023-04-16T02:14:26.569Z,537.93
2023-04-16T02:14:37.560Z,537.86
2023-04-16T02:14:48.528Z,537.86
2023-04-16T02:14:59.611Z,537.86
2023-04-16T02:15:11.550Z,537.80
2023-04-16T02:15:22.509Z,537.86
2023-04-16T02:15:33.599Z,537.89
2023-04-16T02:15:44.578Z,537.84
2023-04-16T02:15:55.571Z,537.83
2023-04-16T02:16:06.600Z,537.73
2023-04-16T02:16:18.667Z,537.73
2023-04-16T02:16:29.570Z,537.77
2023-04-16T02:16:40.635Z,537.67
2023-04-16T02:16:52.609Z,537.57
2023-04-16T02:17:04.616Z,537.61
2023-04-16T02:17:16.555Z,537.62
2023-04-16T02:17:27.581Z,537.70
2023-04-16T02:17:38.649Z,537.60
2023-04-16T02:17:50.647Z,537.59
2023-04-16T02:18:02.639Z,537.41
2023-04-16T02:18:14.624Z,537.56
2023-04-16T02:18:26.584Z,537.72
2023-04-16T02:18:37.572Z,537.51
2023-04-16T02:18:48.556Z,537.54
2023-04-16T02:18:59.528Z,537.53
2023-04-16T02:19:10.709Z,537.53
2023-04-16T02:19:22.631Z,537.56
2023-04-16T02:19:34.607Z,537.54
2023-04-16T02:19:45.579Z,537.56
2023-04-16T02:19:56.571Z,537.62
2023-04-16T02:20:07.558Z,537.64
2023-04-16T02:20:18.536Z,537.56